sim
Sign-in with your pilot id or email,
or register
Callsign
Passwort

Schedule Details

Flight Number: EWG1787 (4)
Departure: Palma de Mallorca Airport (LEPA) at 13:20
Arrival: Munich Airport (EDDM) at 15:35
Route: Eurowings Passenger Schedule. Enter filed route here before submitting Pirep.

Weather Information
Getting current METAR information for LEPA 281200Z 27007KT 200V330 9999 FEW040 24/10 Q1016 NOSIG
Getting current METAR information for EDDM 281150Z 27004KT 240V300 9999 FEW010 BKN040 10/07 Q1012 NOSIG

Schedule Frequency

Route Map